sensor_id;sensor_type;location;lat;lon;timestamp;temperature;humidity
57892;DHT22;43708;48.828;9.166;2023-05-13T00:02:15;20.10;99.00
57892;DHT22;43708;48.828;9.166;2023-05-13T00:04:42;20.10;99.10
57892;DHT22;43708;48.828;9.166;2023-05-13T00:07:07;20.10;99.10
57892;DHT22;43708;48.828;9.166;2023-05-13T00:09:33;20.10;99.10
57892;DHT22;43708;48.828;9.166;2023-05-13T00:11:58;20.10;99.10
57892;DHT22;43708;48.828;9.166;2023-05-13T00:14:24;20.10;99.10
57892;DHT22;43708;48.828;9.166;2023-05-13T00:16:50;20.00;99.00
57892;DHT22;43708;48.828;9.166;2023-05-13T00:19:15;20.10;99.10
57892;DHT22;43708;48.828;9.166;2023-05-13T00:21:41;20.00;99.00
57892;DHT22;43708;48.828;9.166;2023-05-13T00:24:06;20.10;99.10
57892;DHT22;43708;48.828;9.166;2023-05-13T00:26:32;20.00;99.00
57892;DHT22;43708;48.828;9.166;2023-05-13T00:28:57;20.00;99.00
57892;DHT22;43708;48.828;9.166;2023-05-13T00:31:23;20.00;99.40
57892;DHT22;43708;48.828;9.166;2023-05-13T00:33:49;20.00;99.00
57892;DHT22;43708;48.828;9.166;2023-05-13T00:36:14;20.00;99.00
57892;DHT22;43708;48.828;9.166;2023-05-13T00:38:40;20.00;99.00
57892;DHT22;43708;48.828;9.166;2023-05-13T00:41:08;20.00;99.00
57892;DHT22;43708;48.828;9.166;2023-05-13T00:43:33;20.00;99.00
57892;DHT22;43708;48.828;9.166;2023-05-13T00:45:59;20.00;99.00
57892;DHT22;43708;48.828;9.166;2023-05-13T00:48:25;20.00;99.00
57892;DHT22;43708;48.828;9.166;2023-05-13T00:50:51;20.00;99.00
57892;DHT22;43708;48.828;9.166;2023-05-13T00:53:17;20.00;99.00
57892;DHT22;43708;48.828;9.166;2023-05-13T00:55:44;20.00;99.00
57892;DHT22;43708;48.828;9.166;2023-05-13T00:58:10;20.00;99.00
57892;DHT22;43708;48.828;9.166;2023-05-13T01:06:50;19.90;99.00
57892;DHT22;43708;48.828;9.166;2023-05-13T01:12:08;19.90;99.00
57892;DHT22;43708;48.828;9.166;2023-05-13T01:14:41;19.90;99.00
57892;DHT22;43708;48.828;9.166;2023-05-13T01:17:15;19.90;99.00
57892;DHT22;43708;48.828;9.166;2023-05-13T01:19:53;19.90;99.00
57892;DHT22;43708;48.828;9.166;2023-05-13T01:22:20;19.90;98.90
57892;DHT22;43708;48.828;9.166;2023-05-13T01:24:45;19.90;98.90
57892;DHT22;43708;48.828;9.166;2023-05-13T01:27:11;19.90;98.90
57892;DHT22;43708;48.828;9.166;2023-05-13T01:29:37;19.90;98.90
57892;DHT22;43708;48.828;9.166;2023-05-13T01:32:05;19.90;98.90
57892;DHT22;43708;48.828;9.166;2023-05-13T01:34:32;19.90;98.90
57892;DHT22;43708;48.828;9.166;2023-05-13T01:36:59;19.90;98.90
57892;DHT22;43708;48.828;9.166;2023-05-13T01:39:25;19.90;98.90
57892;DHT22;43708;48.828;9.166;2023-05-13T01:41:51;19.90;98.90
57892;DHT22;43708;48.828;9.166;2023-05-13T01:44:17;19.90;98.90
57892;DHT22;43708;48.828;9.166;2023-05-13T01:46:43;19.90;98.90
57892;DHT22;43708;48.828;9.166;2023-05-13T01:49:09;19.90;98.90
57892;DHT22;43708;48.828;9.166;2023-05-13T01:51:35;19.90;98.90
57892;DHT22;43708;48.828;9.166;2023-05-13T01:54:02;19.90;98.90
57892;DHT22;43708;48.828;9.166;2023-05-13T01:56:28;19.90;98.90
57892;DHT22;43708;48.828;9.166;2023-05-13T01:58:54;19.90;98.80
57892;DHT22;43708;48.828;9.166;2023-05-13T02:01:19;19.90;98.80
57892;DHT22;43708;48.828;9.166;2023-05-13T02:03:45;19.90;98.80
57892;DHT22;43708;48.828;9.166;2023-05-13T02:06:10;19.80;98.80
57892;DHT22;43708;48.828;9.166;2023-05-13T02:08:36;19.90;98.80
57892;DHT22;43708;48.828;9.166;2023-05-13T02:11:01;19.80;98.80
57892;DHT22;43708;48.828;9.166;2023-05-13T02:13:27;19.80;98.80
57892;DHT22;43708;48.828;9.166;2023-05-13T02:15:53;19.80;98.80
57892;DHT22;43708;48.828;9.166;2023-05-13T02:18:19;19.80;98.80
57892;DHT22;43708;48.828;9.166;2023-05-13T02:20:45;19.80;98.80
57892;DHT22;43708;48.828;9.166;2023-05-13T02:23:11;19.80;98.80
57892;DHT22;43708;48.828;9.166;2023-05-13T02:25:37;19.80;98.80
57892;DHT22;43708;48.828;9.166;2023-05-13T02:28:02;19.80;98.70
57892;DHT22;43708;48.828;9.166;2023-05-13T02:30:28;19.80;98.70
57892;DHT22;43708;48.828;9.166;2023-05-13T02:32:57;19.80;98.70
57892;DHT22;43708;48.828;9.166;2023-05-13T02:35:22;19.80;98.70
57892;DHT22;43708;48.828;9.166;2023-05-13T02:37:50;19.80;98.70
57892;DHT22;43708;48.828;9.166;2023-05-13T02:40:15;19.80;98.70
57892;DHT22;43708;48.828;9.166;2023-05-13T02:42:41;19.80;98.70
57892;DHT22;43708;48.828;9.166;2023-05-13T02:45:08;19.80;98.70
57892;DHT22;43708;48.828;9.166;2023-05-13T02:47:34;19.80;98.60
57892;DHT22;43708;48.828;9.166;2023-05-13T02:50:00;19.80;98.60
57892;DHT22;43708;48.828;9.166;2023-05-13T02:52:25;19.80;98.60
57892;DHT22;43708;48.828;9.166;2023-05-13T02:54:51;19.80;98.60
57892;DHT22;43708;48.828;9.166;2023-05-13T02:57:16;19.80;98.60
57892;DHT22;43708;48.828;9.166;2023-05-13T02:59:42;19.80;98.60
57892;DHT22;43708;48.828;9.166;2023-05-13T03:02:07;19.70;98.60
57892;DHT22;43708;48.828;9.166;2023-05-13T03:04:33;19.70;98.50
57892;DHT22;43708;48.828;9.166;2023-05-13T03:06:58;19.70;98.50
57892;DHT22;43708;48.828;9.166;2023-05-13T03:09:24;19.70;98.50
57892;DHT22;43708;48.828;9.166;2023-05-13T03:11:50;19.70;98.50
57892;DHT22;43708;48.828;9.166;2023-05-13T03:14:15;19.70;98.50
57892;DHT22;43708;48.828;9.166;2023-05-13T03:16:41;19.70;98.50
57892;DHT22;43708;48.828;9.166;2023-05-13T03:19:07;19.70;98.50
57892;DHT22;43708;48.828;9.166;2023-05-13T03:21:32;19.70;98.50
57892;DHT22;43708;48.828;9.166;2023-05-13T03:23:58;19.70;98.50
57892;DHT22;43708;48.828;9.166;2023-05-13T03:26:23;19.70;98.40
57892;DHT22;43708;48.828;9.166;2023-05-13T03:28:49;19.70;98.40
57892;DHT22;43708;48.828;9.166;2023-05-13T03:31:15;19.70;98.40
57892;DHT22;43708;48.828;9.166;2023-05-13T03:33:40;19.70;98.40
57892;DHT22;43708;48.828;9.166;2023-05-13T03:36:06;19.70;98.40
57892;DHT22;43708;48.828;9.166;2023-05-13T03:38:32;19.70;98.40
57892;DHT22;43708;48.828;9.166;2023-05-13T03:40:57;19.70;98.40
57892;DHT22;43708;48.828;9.166;2023-05-13T03:43:23;19.70;98.40
57892;DHT22;43708;48.828;9.166;2023-05-13T03:45:49;19.70;98.30
57892;DHT22;43708;48.828;9.166;2023-05-13T03:48:16;19.70;98.30
57892;DHT22;43708;48.828;9.166;2023-05-13T03:50:41;19.70;98.30
57892;DHT22;43708;48.828;9.166;2023-05-13T03:53:08;19.70;98.30
57892;DHT22;43708;48.828;9.166;2023-05-13T03:55:34;19.70;98.30
57892;DHT22;43708;48.828;9.166;2023-05-13T03:57:59;19.70;98.30
57892;DHT22;43708;48.828;9.166;2023-05-13T04:00:25;19.70;98.30
57892;DHT22;43708;48.828;9.166;2023-05-13T04:02:50;19.70;98.30
57892;DHT22;43708;48.828;9.166;2023-05-13T04:05:16;19.70;98.20
57892;DHT22;43708;48.828;9.166;2023-05-13T04:07:41;19.70;98.20
57892;DHT22;43708;48.828;9.166;2023-05-13T04:10:08;19.70;98.20
57892;DHT22;43708;48.828;9.166;2023-05-13T04:12:34;19.70;98.20
57892;DHT22;43708;48.828;9.166;2023-05-13T04:15:00;19.70;98.20
57892;DHT22;43708;48.828;9.166;2023-05-13T04:17:26;19.70;98.20
57892;DHT22;43708;48.828;9.166;2023-05-13T04:19:52;19.70;98.20
57892;DHT22;43708;48.828;9.166;2023-05-13T04:22:18;19.70;98.10
57892;DHT22;43708;48.828;9.166;2023-05-13T04:24:44;19.70;98.10
57892;DHT22;43708;48.828;9.166;2023-05-13T04:27:09;19.70;98.10
57892;DHT22;43708;48.828;9.166;2023-05-13T04:29:35;19.70;98.10
57892;DHT22;43708;48.828;9.166;2023-05-13T04:32:00;19.70;98.10
57892;DHT22;43708;48.828;9.166;2023-05-13T04:34:26;19.70;98.10
57892;DHT22;43708;48.828;9.166;2023-05-13T04:36:52;19.60;98.00
57892;DHT22;43708;48.828;9.166;2023-05-13T04:39:17;19.70;98.10
57892;DHT22;43708;48.828;9.166;2023-05-13T04:41:43;19.60;98.00
57892;DHT22;43708;48.828;9.166;2023-05-13T04:44:08;19.60;98.00
57892;DHT22;43708;48.828;9.166;2023-05-13T04:46:34;19.60;98.00
57892;DHT22;43708;48.828;9.166;2023-05-13T04:49:02;19.60;98.00
57892;DHT22;43708;48.828;9.166;2023-05-13T04:51:27;19.60;97.90
57892;DHT22;43708;48.828;9.166;2023-05-13T04:53:53;19.60;97.90
57892;DHT22;43708;48.828;9.166;2023-05-13T04:56:19;19.60;97.90
57892;DHT22;43708;48.828;9.166;2023-05-13T04:58:45;19.60;97.90
57892;DHT22;43708;48.828;9.166;2023-05-13T05:01:10;19.60;97.90
57892;DHT22;43708;48.828;9.166;2023-05-13T05:03:36;19.60;98.20
57892;DHT22;43708;48.828;9.166;2023-05-13T05:06:01;19.60;97.80
57892;DHT22;43708;48.828;9.166;2023-05-13T05:08:27;19.60;97.80
57892;DHT22;43708;48.828;9.166;2023-05-13T05:10:53;19.60;97.80
57892;DHT22;43708;48.828;9.166;2023-05-13T05:13:18;19.60;97.80
57892;DHT22;43708;48.828;9.166;2023-05-13T05:15:44;19.70;97.80
57892;DHT22;43708;48.828;9.166;2023-05-13T05:18:10;19.60;97.80
57892;DHT22;43708;48.828;9.166;2023-05-13T05:20:36;19.60;97.70
57892;DHT22;43708;48.828;9.166;2023-05-13T05:23:02;19.60;97.70
57892;DHT22;43708;48.828;9.166;2023-05-13T05:25:28;19.60;97.70
57892;DHT22;43708;48.828;9.166;2023-05-13T05:27:53;19.60;97.70
57892;DHT22;43708;48.828;9.166;2023-05-13T05:30:19;19.60;97.70
57892;DHT22;43708;48.828;9.166;2023-05-13T05:32:45;19.60;97.70
57892;DHT22;43708;48.828;9.166;2023-05-13T05:35:11;19.60;97.70
57892;DHT22;43708;48.828;9.166;2023-05-13T05:37:37;19.60;97.70
57892;DHT22;43708;48.828;9.166;2023-05-13T05:40:03;19.60;97.60
57892;DHT22;43708;48.828;9.166;2023-05-13T05:42:29;19.60;97.60
57892;DHT22;43708;48.828;9.166;2023-05-13T05:44:55;19.60;97.60
57892;DHT22;43708;48.828;9.166;2023-05-13T05:47:20;19.60;97.60
57892;DHT22;43708;48.828;9.166;2023-05-13T05:49:46;19.60;97.60
57892;DHT22;43708;48.828;9.166;2023-05-13T05:52:11;19.70;97.60
57892;DHT22;43708;48.828;9.166;2023-05-13T05:54:37;19.60;97.50
57892;DHT22;43708;48.828;9.166;2023-05-13T05:57:03;19.70;97.60
57892;DHT22;43708;48.828;9.166;2023-05-13T05:59:29;19.60;97.50
57892;DHT22;43708;48.828;9.166;2023-05-13T06:01:55;19.60;97.40
57892;DHT22;43708;48.828;9.166;2023-05-13T06:04:20;19.70;97.40
57892;DHT22;43708;48.828;9.166;2023-05-13T06:06:46;19.70;97.40
57892;DHT22;43708;48.828;9.166;2023-05-13T06:09:11;19.70;97.40
57892;DHT22;43708;48.828;9.166;2023-05-13T06:11:37;19.70;97.40
57892;DHT22;43708;48.828;9.166;2023-05-13T06:14:02;19.70;97.40
57892;DHT22;43708;48.828;9.166;2023-05-13T06:16:28;19.70;97.40
57892;DHT22;43708;48.828;9.166;2023-05-13T06:18:54;19.70;97.40
57892;DHT22;43708;48.828;9.166;2023-05-13T06:21:20;19.70;97.40
57892;DHT22;43708;48.828;9.166;2023-05-13T06:23:45;19.70;97.40
57892;DHT22;43708;48.828;9.166;2023-05-13T06:26:11;19.70;97.50
57892;DHT22;43708;48.828;9.166;2023-05-13T06:28:36;19.70;97.50
57892;DHT22;43708;48.828;9.166;2023-05-13T06:31:02;19.80;97.50
57892;DHT22;43708;48.828;9.166;2023-05-13T06:33:28;19.80;97.60
57892;DHT22;43708;48.828;9.166;2023-05-13T06:35:53;19.70;97.60
57892;DHT22;43708;48.828;9.166;2023-05-13T06:38:19;19.70;97.60
57892;DHT22;43708;48.828;9.166;2023-05-13T06:40:44;19.80;97.60
57892;DHT22;43708;48.828;9.166;2023-05-13T06:43:11;19.70;97.60
57892;DHT22;43708;48.828;9.166;2023-05-13T06:45:38;19.70;97.60
57892;DHT22;43708;48.828;9.166;2023-05-13T06:48:04;19.70;97.50
57892;DHT22;43708;48.828;9.166;2023-05-13T06:50:30;19.80;97.50
57892;DHT22;43708;48.828;9.166;2023-05-13T06:52:55;19.80;97.50
57892;DHT22;43708;48.828;9.166;2023-05-13T06:55:22;19.80;97.50
57892;DHT22;43708;48.828;9.166;2023-05-13T06:57:47;19.80;97.50
57892;DHT22;43708;48.828;9.166;2023-05-13T07:00:14;19.80;97.50
57892;DHT22;43708;48.828;9.166;2023-05-13T07:02:40;19.80;97.50
57892;DHT22;43708;48.828;9.166;2023-05-13T07:05:07;19.80;97.50
57892;DHT22;43708;48.828;9.166;2023-05-13T07:07:33;19.80;97.50
57892;DHT22;43708;48.828;9.166;2023-05-13T07:09:58;19.80;97.50
57892;DHT22;43708;48.828;9.166;2023-05-13T07:12:24;19.80;97.50
57892;DHT22;43708;48.828;9.166;2023-05-13T07:14:49;19.80;97.50
57892;DHT22;43708;48.828;9.166;2023-05-13T07:17:16;19.90;97.50
57892;DHT22;43708;48.828;9.166;2023-05-13T07:19:41;19.90;97.40
57892;DHT22;43708;48.828;9.166;2023-05-13T07:22:07;19.90;97.40
57892;DHT22;43708;48.828;9.166;2023-05-13T07:24:32;19.90;97.40
57892;DHT22;43708;48.828;9.166;2023-05-13T07:26:58;19.90;97.40
57892;DHT22;43708;48.828;9.166;2023-05-13T07:29:24;19.90;97.40
57892;DHT22;43708;48.828;9.166;2023-05-13T07:31:49;19.90;97.40
57892;DHT22;43708;48.828;9.166;2023-05-13T07:34:16;19.90;97.40
57892;DHT22;43708;48.828;9.166;2023-05-13T07:36:41;19.90;97.40
57892;DHT22;43708;48.828;9.166;2023-05-13T07:39:07;19.90;97.40
57892;DHT22;43708;48.828;9.166;2023-05-13T07:41:34;19.90;97.40
57892;DHT22;43708;48.828;9.166;2023-05-13T07:44:00;19.90;97.40
57892;DHT22;43708;48.828;9.166;2023-05-13T07:46:26;19.90;97.40
57892;DHT22;43708;48.828;9.166;2023-05-13T07:48:51;19.90;97.40
57892;DHT22;43708;48.828;9.166;2023-05-13T07:51:17;19.90;97.40
57892;DHT22;43708;48.828;9.166;2023-05-13T07:53:43;19.90;97.30
57892;DHT22;43708;48.828;9.166;2023-05-13T07:56:11;19.90;97.20
57892;DHT22;43708;48.828;9.166;2023-05-13T07:58:37;19.90;97.20
57892;DHT22;43708;48.828;9.166;2023-05-13T08:01:02;19.90;97.10
57892;DHT22;43708;48.828;9.166;2023-05-13T08:03:29;19.90;97.00
57892;DHT22;43708;48.828;9.166;2023-05-13T08:05:55;19.90;96.90
57892;DHT22;43708;48.828;9.166;2023-05-13T08:08:20;20.00;96.80
57892;DHT22;43708;48.828;9.166;2023-05-13T08:10:46;20.00;96.70
57892;DHT22;43708;48.828;9.166;2023-05-13T08:13:12;20.00;96.60
57892;DHT22;43708;48.828;9.166;2023-05-13T08:15:37;20.00;96.60
57892;DHT22;43708;48.828;9.166;2023-05-13T08:18:03;20.00;96.50
57892;DHT22;43708;48.828;9.166;2023-05-13T08:20:29;20.00;96.40
57892;DHT22;43708;48.828;9.166;2023-05-13T08:22:56;20.00;96.40
57892;DHT22;43708;48.828;9.166;2023-05-13T08:25:22;20.00;96.30
57892;DHT22;43708;48.828;9.166;2023-05-13T08:27:48;20.00;96.20
57892;DHT22;43708;48.828;9.166;2023-05-13T08:30:14;20.00;96.20
57892;DHT22;43708;48.828;9.166;2023-05-13T08:32:39;20.00;96.20
57892;DHT22;43708;48.828;9.166;2023-05-13T08:35:05;20.00;96.20
57892;DHT22;43708;48.828;9.166;2023-05-13T08:37:31;20.00;96.10
57892;DHT22;43708;48.828;9.166;2023-05-13T08:39:57;20.00;96.10
57892;DHT22;43708;48.828;9.166;2023-05-13T08:42:31;20.00;96.20
57892;DHT22;43708;48.828;9.166;2023-05-13T08:44:57;20.00;96.20
57892;DHT22;43708;48.828;9.166;2023-05-13T08:47:49;20.10;96.20
57892;DHT22;43708;48.828;9.166;2023-05-13T08:50:16;20.10;96.10
57892;DHT22;43708;48.828;9.166;2023-05-13T08:52:42;20.10;96.10
57892;DHT22;43708;48.828;9.166;2023-05-13T08:55:08;20.10;96.10
57892;DHT22;43708;48.828;9.166;2023-05-13T08:57:34;20.10;96.10
57892;DHT22;43708;48.828;9.166;2023-05-13T08:59:59;20.10;96.10
57892;DHT22;43708;48.828;9.166;2023-05-13T09:02:25;20.10;96.20
57892;DHT22;43708;48.828;9.166;2023-05-13T09:04:52;20.10;96.20
57892;DHT22;43708;48.828;9.166;2023-05-13T09:07:19;20.10;96.20
57892;DHT22;43708;48.828;9.166;2023-05-13T09:09:45;20.10;96.20
57892;DHT22;43708;48.828;9.166;2023-05-13T09:12:10;20.10;96.20
57892;DHT22;43708;48.828;9.166;2023-05-13T09:14:37;20.20;96.20
57892;DHT22;43708;48.828;9.166;2023-05-13T09:17:03;20.20;96.20
57892;DHT22;43708;48.828;9.166;2023-05-13T09:19:29;20.20;96.10
57892;DHT22;43708;48.828;9.166;2023-05-13T09:21:55;20.30;96.20
57892;DHT22;43708;48.828;9.166;2023-05-13T09:24:22;20.30;96.10
57892;DHT22;43708;48.828;9.166;2023-05-13T09:26:49;20.30;96.10
57892;DHT22;43708;48.828;9.166;2023-05-13T09:29:22;20.30;96.10
57892;DHT22;43708;48.828;9.166;2023-05-13T09:31:53;20.30;96.10
57892;DHT22;43708;48.828;9.166;2023-05-13T09:34:30;20.30;96.10
57892;DHT22;43708;48.828;9.166;2023-05-13T09:37:03;20.30;96.10
57892;DHT22;43708;48.828;9.166;2023-05-13T09:39:31;20.30;96.10
57892;DHT22;43708;48.828;9.166;2023-05-13T09:41:57;20.30;96.10
57892;DHT22;43708;48.828;9.166;2023-05-13T09:44:22;20.30;96.20
57892;DHT22;43708;48.828;9.166;2023-05-13T09:46:50;20.30;96.20
57892;DHT22;43708;48.828;9.166;2023-05-13T09:49:16;20.20;96.10
57892;DHT22;43708;48.828;9.166;2023-05-13T09:51:43;19.90;96.10
57892;DHT22;43708;48.828;9.166;2023-05-13T09:54:11;19.60;96.20
57892;DHT22;43708;48.828;9.166;2023-05-13T09:56:37;19.50;96.30
57892;DHT22;43708;48.828;9.166;2023-05-13T09:59:03;19.50;96.30
57892;DHT22;43708;48.828;9.166;2023-05-13T10:01:29;19.70;96.20
57892;DHT22;43708;48.828;9.166;2023-05-13T10:03:56;19.80;96.10
57892;DHT22;43708;48.828;9.166;2023-05-13T10:06:25;19.80;96.00
57892;DHT22;43708;48.828;9.166;2023-05-13T10:08:53;19.90;96.00
57892;DHT22;43708;48.828;9.166;2023-05-13T10:11:20;20.00;96.00
57892;DHT22;43708;48.828;9.166;2023-05-13T10:13:51;20.00;96.00
57892;DHT22;43708;48.828;9.166;2023-05-13T10:16:19;20.00;95.90
57892;DHT22;43708;48.828;9.166;2023-05-13T10:18:45;20.10;95.90
57892;DHT22;43708;48.828;9.166;2023-05-13T10:21:11;20.10;95.90
57892;DHT22;43708;48.828;9.166;2023-05-13T10:23:37;20.10;95.90
57892;DHT22;43708;48.828;9.166;2023-05-13T10:26:04;20.10;95.90
57892;DHT22;43708;48.828;9.166;2023-05-13T10:28:31;20.10;96.00
57892;DHT22;43708;48.828;9.166;2023-05-13T10:30:58;20.10;96.00
57892;DHT22;43708;48.828;9.166;2023-05-13T10:33:23;20.10;96.00
57892;DHT22;43708;48.828;9.166;2023-05-13T10:36:26;20.10;96.10
57892;DHT22;43708;48.828;9.166;2023-05-13T10:39:26;20.10;96.00
57892;DHT22;43708;48.828;9.166;2023-05-13T10:44:39;20.10;96.10
57892;DHT22;43708;48.828;9.166;2023-05-13T10:47:08;20.10;96.10
57892;DHT22;43708;48.828;9.166;2023-05-13T10:49:35;20.10;96.10
57892;DHT22;43708;48.828;9.166;2023-05-13T10:52:10;20.10;96.10
57892;DHT22;43708;48.828;9.166;2023-05-13T10:54:39;20.10;96.10
57892;DHT22;43708;48.828;9.166;2023-05-13T10:57:07;20.10;96.20
57892;DHT22;43708;48.828;9.166;2023-05-13T10:59:33;20.10;96.20
57892;DHT22;43708;48.828;9.166;2023-05-13T11:02:21;20.10;96.20
57892;DHT22;43708;48.828;9.166;2023-05-13T11:04:59;20.20;96.20
57892;DHT22;43708;48.828;9.166;2023-05-13T11:07:28;20.20;96.20
57892;DHT22;43708;48.828;9.166;2023-05-13T11:09:54;20.10;96.20
57892;DHT22;43708;48.828;9.166;2023-05-13T11:12:19;20.10;96.20
57892;DHT22;43708;48.828;9.166;2023-05-13T11:14:45;20.10;96.20
57892;DHT22;43708;48.828;9.166;2023-05-13T11:17:11;20.10;96.20
57892;DHT22;43708;48.828;9.166;2023-05-13T11:19:44;20.10;96.20
57892;DHT22;43708;48.828;9.166;2023-05-13T11:25:01;20.10;96.20
57892;DHT22;43708;48.828;9.166;2023-05-13T11:27:27;20.00;96.20
57892;DHT22;43708;48.828;9.166;2023-05-13T11:29:56;20.10;96.20
57892;DHT22;43708;48.828;9.166;2023-05-13T11:37:45;20.10;96.10
57892;DHT22;43708;48.828;9.166;2023-05-13T11:40:20;20.10;96.10
57892;DHT22;43708;48.828;9.166;2023-05-13T11:42:47;20.10;96.10
57892;DHT22;43708;48.828;9.166;2023-05-13T11:45:12;20.10;96.10
57892;DHT22;43708;48.828;9.166;2023-05-13T11:47:38;20.10;96.10
57892;DHT22;43708;48.828;9.166;2023-05-13T11:50:17;20.10;96.10
57892;DHT22;43708;48.828;9.166;2023-05-13T11:52:42;20.10;96.10
57892;DHT22;43708;48.828;9.166;2023-05-13T11:55:08;20.10;96.00
57892;DHT22;43708;48.828;9.166;2023-05-13T11:57:34;20.10;96.10
57892;DHT22;43708;48.828;9.166;2023-05-13T12:00:05;20.10;96.10
57892;DHT22;43708;48.828;9.166;2023-05-13T12:02:38;20.10;96.10
57892;DHT22;43708;48.828;9.166;2023-05-13T12:05:09;20.10;96.10
57892;DHT22;43708;48.828;9.166;2023-05-13T12:07:36;20.10;96.10
57892;DHT22;43708;48.828;9.166;2023-05-13T12:10:03;20.10;96.10
57892;DHT22;43708;48.828;9.166;2023-05-13T12:12:31;20.20;96.10
57892;DHT22;43708;48.828;9.166;2023-05-13T12:15:00;20.20;96.10
57892;DHT22;43708;48.828;9.166;2023-05-13T12:17:26;20.20;96.10
57892;DHT22;43708;48.828;9.166;2023-05-13T12:20:11;20.20;96.10
57892;DHT22;43708;48.828;9.166;2023-05-13T12:28:20;20.20;96.10
57892;DHT22;43708;48.828;9.166;2023-05-13T12:30:51;20.20;95.90
57892;DHT22;43708;48.828;9.166;2023-05-13T12:38:53;20.20;95.90
57892;DHT22;43708;48.828;9.166;2023-05-13T12:41:20;20.20;95.80
57892;DHT22;43708;48.828;9.166;2023-05-13T12:43:46;20.20;95.80
57892;DHT22;43708;48.828;9.166;2023-05-13T12:46:12;20.30;95.80
57892;DHT22;43708;48.828;9.166;2023-05-13T12:48:38;20.20;95.80
57892;DHT22;43708;48.828;9.166;2023-05-13T12:51:04;20.30;95.80
57892;DHT22;43708;48.828;9.166;2023-05-13T12:53:29;20.30;95.80
57892;DHT22;43708;48.828;9.166;2023-05-13T12:55:55;20.30;95.80
57892;DHT22;43708;48.828;9.166;2023-05-13T12:58:21;20.30;95.70
57892;DHT22;43708;48.828;9.166;2023-05-13T13:00:46;20.30;95.70
57892;DHT22;43708;48.828;9.166;2023-05-13T13:03:12;20.30;95.70
57892;DHT22;43708;48.828;9.166;2023-05-13T13:05:38;20.30;95.70
57892;DHT22;43708;48.828;9.166;2023-05-13T13:08:03;20.30;95.60
57892;DHT22;43708;48.828;9.166;2023-05-13T13:10:29;20.30;95.70
57892;DHT22;43708;48.828;9.166;2023-05-13T13:12:55;20.30;95.60
57892;DHT22;43708;48.828;9.166;2023-05-13T13:15:21;20.30;95.60
57892;DHT22;43708;48.828;9.166;2023-05-13T13:17:46;20.30;95.60
57892;DHT22;43708;48.828;9.166;2023-05-13T13:20:12;20.30;95.50
57892;DHT22;43708;48.828;9.166;2023-05-13T13:22:38;20.30;95.50
57892;DHT22;43708;48.828;9.166;2023-05-13T13:25:04;20.30;95.50
57892;DHT22;43708;48.828;9.166;2023-05-13T13:27:31;20.30;95.50
57892;DHT22;43708;48.828;9.166;2023-05-13T13:29:57;20.40;95.50
57892;DHT22;43708;48.828;9.166;2023-05-13T13:32:23;20.30;95.50
57892;DHT22;43708;48.828;9.166;2023-05-13T13:34:48;20.30;95.40
57892;DHT22;43708;48.828;9.166;2023-05-13T13:37:14;20.40;95.40
57892;DHT22;43708;48.828;9.166;2023-05-13T13:39:40;20.40;95.40
57892;DHT22;43708;48.828;9.166;2023-05-13T13:42:05;20.40;95.40
57892;DHT22;43708;48.828;9.166;2023-05-13T13:44:31;20.40;95.40
57892;DHT22;43708;48.828;9.166;2023-05-13T13:46:57;20.40;95.40
57892;DHT22;43708;48.828;9.166;2023-05-13T13:49:23;20.40;95.40
57892;DHT22;43708;48.828;9.166;2023-05-13T13:51:52;20.40;95.40
57892;DHT22;43708;48.828;9.166;2023-05-13T13:54:18;20.40;95.40
57892;DHT22;43708;48.828;9.166;2023-05-13T13:56:44;20.40;95.40
57892;DHT22;43708;48.828;9.166;2023-05-13T13:59:09;20.40;95.40
57892;DHT22;43708;48.828;9.166;2023-05-13T14:01:35;20.30;95.30
57892;DHT22;43708;48.828;9.166;2023-05-13T14:04:18;20.40;95.30
57892;DHT22;43708;48.828;9.166;2023-05-13T14:06:44;20.40;95.30
57892;DHT22;43708;48.828;9.166;2023-05-13T14:09:10;20.40;95.30
57892;DHT22;43708;48.828;9.166;2023-05-13T14:11:36;20.40;95.30
57892;DHT22;43708;48.828;9.166;2023-05-13T14:14:02;20.40;95.20
57892;DHT22;43708;48.828;9.166;2023-05-13T14:16:28;20.40;95.20
57892;DHT22;43708;48.828;9.166;2023-05-13T14:18:53;20.40;95.20
57892;DHT22;43708;48.828;9.166;2023-05-13T14:21:19;20.50;95.20
57892;DHT22;43708;48.828;9.166;2023-05-13T14:23:44;20.50;95.20
57892;DHT22;43708;48.828;9.166;2023-05-13T14:26:10;20.50;95.20
57892;DHT22;43708;48.828;9.166;2023-05-13T14:28:39;20.50;95.20
57892;DHT22;43708;48.828;9.166;2023-05-13T14:31:04;20.50;95.20
57892;DHT22;43708;48.828;9.166;2023-05-13T14:33:30;20.40;95.10
57892;DHT22;43708;48.828;9.166;2023-05-13T14:35:55;20.40;95.10
57892;DHT22;43708;48.828;9.166;2023-05-13T14:38:21;20.40;95.10
57892;DHT22;43708;48.828;9.166;2023-05-13T14:40:47;20.40;95.10
57892;DHT22;43708;48.828;9.166;2023-05-13T14:43:12;20.40;95.10
57892;DHT22;43708;48.828;9.166;2023-05-13T14:45:38;20.40;95.10
57892;DHT22;43708;48.828;9.166;2023-05-13T14:48:03;20.40;95.10
57892;DHT22;43708;48.828;9.166;2023-05-13T14:50:29;20.40;95.10
57892;DHT22;43708;48.828;9.166;2023-05-13T14:52:55;20.40;95.10
57892;DHT22;43708;48.828;9.166;2023-05-13T14:55:20;20.40;95.10
57892;DHT22;43708;48.828;9.166;2023-05-13T14:57:46;20.40;95.10
57892;DHT22;43708;48.828;9.166;2023-05-13T15:00:12;20.50;95.10
57892;DHT22;43708;48.828;9.166;2023-05-13T15:02:37;20.50;95.00
57892;DHT22;43708;48.828;9.166;2023-05-13T15:05:03;20.50;95.00
57892;DHT22;43708;48.828;9.166;2023-05-13T15:07:29;20.50;94.90
57892;DHT22;43708;48.828;9.166;2023-05-13T15:09:55;20.50;94.90
57892;DHT22;43708;48.828;9.166;2023-05-13T15:12:20;20.50;94.90
57892;DHT22;43708;48.828;9.166;2023-05-13T15:14:53;20.60;94.90
57892;DHT22;43708;48.828;9.166;2023-05-13T15:17:19;20.60;94.90
57892;DHT22;43708;48.828;9.166;2023-05-13T15:19:45;20.60;94.90
57892;DHT22;43708;48.828;9.166;2023-05-13T15:22:10;20.60;94.80
57892;DHT22;43708;48.828;9.166;2023-05-13T15:24:36;20.70;94.80
57892;DHT22;43708;48.828;9.166;2023-05-13T15:27:03;20.70;94.70
57892;DHT22;43708;48.828;9.166;2023-05-13T15:29:29;20.70;94.70
57892;DHT22;43708;48.828;9.166;2023-05-13T15:31:54;20.80;94.70
57892;DHT22;43708;48.828;9.166;2023-05-13T15:34:20;20.80;94.60
57892;DHT22;43708;48.828;9.166;2023-05-13T15:36:46;20.80;94.90
57892;DHT22;43708;48.828;9.166;2023-05-13T15:39:11;20.80;94.60
57892;DHT22;43708;48.828;9.166;2023-05-13T15:41:37;20.80;94.70
57892;DHT22;43708;48.828;9.166;2023-05-13T15:44:03;20.80;94.60
57892;DHT22;43708;48.828;9.166;2023-05-13T15:46:29;20.80;94.90
57892;DHT22;43708;48.828;9.166;2023-05-13T15:48:58;20.80;94.70
57892;DHT22;43708;48.828;9.166;2023-05-13T15:51:23;20.70;94.60
57892;DHT22;43708;48.828;9.166;2023-05-13T15:53:49;20.70;94.60
57892;DHT22;43708;48.828;9.166;2023-05-13T15:56:17;20.70;94.70
57892;DHT22;43708;48.828;9.166;2023-05-13T15:58:42;20.80;94.70